Time;durP1;ratioP1;P1;durP2;ratioP2;P2;SDS_P1;SDS_P2;PMS_P1;PMS_P2;Temp;Humidity;BMP_temperature;BMP_pressure;BME280_temperature;BME280_humidity;BME280_pressure;Samples;Min_cycle;Max_cycle;Signal;HPM_P1;HPM_P2
2022/04/24 00:00:12;;;;;;;8.20;7.20;;;10.80;85.90;;;;;;5018119;28;89157;-69
2022/04/24 00:02:39;;;;;;;9.85;7.53;;;10.70;86.10;;;;;;5018604;28;91148;-69
2022/04/24 00:05:06;;;;;;;8.77;7.47;;;10.70;86.20;;;;;;5019047;28;89094;-69
2022/04/24 00:07:33;;;;;;;8.10;6.38;;;10.70;86.10;;;;;;5018496;28;91156;-70
2022/04/24 00:10:00;;;;;;;10.27;7.60;;;10.70;86.20;;;;;;5002064;28;88165;-70
2022/04/24 00:12:27;;;;;;;9.02;6.75;;;10.70;86.20;;;;;;5018148;28;90749;-70
2022/04/24 00:14:54;;;;;;;9.02;7.45;;;10.60;86.40;;;;;;5018242;28;90083;-70
2022/04/24 00:17:21;;;;;;;7.45;6.72;;;10.60;86.60;;;;;;5018520;28;88668;-70
2022/04/24 00:19:48;;;;;;;7.40;6.57;;;10.60;86.30;;;;;;5019850;28;89769;-70
2022/04/24 00:22:15;;;;;;;8.35;7.32;;;10.60;86.80;;;;;;5018401;28;88504;-70
2022/04/24 00:24:42;;;;;;;9.05;7.30;;;10.60;86.80;;;;;;5017863;28;89344;-70
2022/04/24 00:27:09;;;;;;;10.55;7.43;;;10.50;87.00;;;;;;5019338;28;89264;-70
2022/04/24 00:29:37;;;;;;;9.23;7.22;;;10.50;86.90;;;;;;5018481;28;89319;-70
2022/04/24 00:32:05;;;;;;;8.43;7.53;;;10.50;87.10;;;;;;5017833;28;88577;-70
2022/04/24 00:34:33;;;;;;;8.18;7.03;;;10.50;86.90;;;;;;5018744;28;101018;-69
2022/04/24 00:37:00;;;;;;;7.40;6.70;;;10.50;87.10;;;;;;5019081;28;88623;-70
2022/04/24 00:39:27;;;;;;;8.30;7.20;;;10.40;87.10;;;;;;5001573;28;89384;-70
2022/04/24 00:41:54;;;;;;;8.93;7.57;;;10.40;87.40;;;;;;5017777;28;89915;-70
2022/04/24 00:44:22;;;;;;;8.93;7.28;;;10.40;88.10;;;;;;5001371;28;91287;-69
2022/04/24 00:47:23;;;;;;;9.38;7.95;;;10.40;87.40;;;;;;5005271;28;90688;-70
2022/04/24 00:49:50;;;;;;;8.20;7.32;;;10.40;87.70;;;;;;5017599;28;89209;-70
2022/04/24 00:52:18;;;;;;;9.63;7.45;;;10.30;87.80;;;;;;5018879;28;88043;-70
2022/04/24 00:54:45;;;;;;;8.50;7.65;;;10.30;87.90;;;;;;5019006;28;88595;-70
2022/04/24 00:57:13;;;;;;;7.90;6.47;;;10.20;87.90;;;;;;5017564;28;88818;-70
2022/04/24 00:59:41;;;;;;;10.60;7.05;;;10.20;88.10;;;;;;5017865;28;88022;-70
2022/04/24 01:02:09;;;;;;;8.48;7.50;;;10.20;88.00;;;;;;5000731;28;90914;-70
2022/04/24 01:04:38;;;;;;;8.20;7.40;;;10.20;88.30;;;;;;5018758;28;88872;-69
2022/04/24 01:07:06;;;;;;;8.95;7.35;;;10.20;88.20;;;;;;5017807;28;88787;-69
2022/04/24 01:09:34;;;;;;;9.32;7.78;;;10.10;88.70;;;;;;5017872;28;87979;-70
2022/04/24 01:12:02;;;;;;;9.00;6.97;;;10.10;88.90;;;;;;5017508;28;88325;-69
2022/04/24 01:14:30;;;;;;;8.32;7.15;;;10.00;89.20;;;;;;5018382;28;89619;-69
2022/04/24 01:16:58;;;;;;;8.45;7.22;;;10.00;89.10;;;;;;5017228;28;89459;-69
2022/04/24 01:19:25;;;;;;;7.93;7.05;;;9.90;89.20;;;;;;5017312;28;88064;-70
2022/04/24 01:21:53;;;;;;;8.13;7.35;;;9.90;89.40;;;;;;5017466;28;93099;-69
2022/04/24 01:24:25;;;;;;;7.75;6.95;;;9.90;89.90;;;;;;5016850;28;90575;-69
2022/04/24 01:26:52;;;;;;;9.43;8.45;;;9.80;89.60;;;;;;5018808;28;88059;-69
2022/04/24 01:29:20;;;;;;;8.52;7.63;;;9.80;89.80;;;;;;5018357;28;88012;-70
2022/04/24 01:31:51;;;;;;;8.27;6.35;;;9.80;89.70;;;;;;5018744;28;88402;-70
2022/04/24 01:34:19;;;;;;;8.35;7.45;;;9.70;90.10;;;;;;5050849;27;88939;-69
2022/04/24 01:36:47;;;;;;;8.48;7.50;;;9.70;89.70;;;;;;5018517;28;88719;-69
2022/04/24 01:39:15;;;;;;;8.18;7.47;;;9.60;89.50;;;;;;5016744;28;88768;-69
2022/04/24 01:41:44;;;;;;;9.15;7.80;;;9.70;89.60;;;;;;5018380;28;87996;-69
2022/04/24 01:44:11;;;;;;;8.32;7.43;;;9.70;89.80;;;;;;5016821;27;91201;-69
2022/04/24 01:46:38;;;;;;;10.50;7.60;;;9.60;89.80;;;;;;5017191;28;88022;-69
2022/04/24 01:49:05;;;;;;;8.63;7.70;;;9.60;89.60;;;;;;5018044;28;88045;-69
2022/04/24 01:51:32;;;;;;;8.90;8.00;;;9.60;89.50;;;;;;5000344;28;91316;-69
2022/04/24 01:53:59;;;;;;;10.20;7.88;;;9.50;89.70;;;;;;5016907;28;89003;-69
2022/04/24 01:56:26;;;;;;;8.48;7.65;;;9.50;90.00;;;;;;5017248;28;87655;-70
2022/04/24 01:58:53;;;;;;;9.57;8.63;;;9.50;89.40;;;;;;5016991;28;88108;-69
2022/04/24 02:01:20;;;;;;;8.88;7.40;;;9.50;89.50;;;;;;5016839;28;88426;-69
2022/04/24 02:03:47;;;;;;;7.50;6.80;;;9.40;89.70;;;;;;5016383;28;89590;-69
2022/04/24 02:06:14;;;;;;;8.48;7.10;;;9.40;89.80;;;;;;5016412;28;91880;-69
2022/04/24 02:08:41;;;;;;;9.23;7.70;;;9.40;89.80;;;;;;5016692;28;96150;-69
2022/04/24 02:11:08;;;;;;;11.68;8.10;;;9.30;90.00;;;;;;5016460;28;91016;-69
2022/04/24 02:13:35;;;;;;;11.55;8.73;;;9.30;90.00;;;;;;5016386;28;93820;-69
2022/04/24 02:16:03;;;;;;;8.18;7.38;;;9.20;90.00;;;;;;4999700;28;91014;-69
2022/04/24 02:18:30;;;;;;;10.30;7.20;;;9.20;90.10;;;;;;5016906;28;88368;-69
2022/04/24 02:20:57;;;;;;;8.40;7.60;;;9.20;90.20;;;;;;5018313;28;88369;-70
2022/04/24 02:23:24;;;;;;;9.55;8.55;;;9.20;90.20;;;;;;4999583;28;91260;-70
2022/04/24 02:25:51;;;;;;;9.18;8.23;;;9.10;90.20;;;;;;5017584;28;87994;-69
2022/04/24 02:28:18;;;;;;;7.50;6.70;;;9.10;90.20;;;;;;5016868;28;88730;-69
2022/04/24 02:30:45;;;;;;;8.85;7.95;;;9.00;90.40;;;;;;5016493;28;88361;-69
2022/04/24 02:33:12;;;;;;;8.90;7.88;;;9.00;90.40;;;;;;5017552;28;88872;-69
2022/04/24 02:35:38;;;;;;;8.82;7.55;;;9.00;90.40;;;;;;5017655;28;88509;-69
2022/04/24 02:38:06;;;;;;;9.20;7.80;;;8.90;90.40;;;;;;5017638;28;87965;-69
2022/04/24 02:40:34;;;;;;;8.82;7.63;;;8.90;90.30;;;;;;5015739;28;90108;-69
2022/04/24 02:43:02;;;;;;;8.65;7.85;;;8.90;90.40;;;;;;5017467;28;88684;-69
2022/04/24 02:45:29;;;;;;;8.10;7.22;;;8.90;90.60;;;;;;5017676;28;88639;-69
2022/04/24 02:47:56;;;;;;;8.80;7.93;;;8.80;90.50;;;;;;5016498;28;88080;-69
2022/04/24 02:50:23;;;;;;;9.20;7.82;;;8.80;90.60;;;;;;5017251;28;90699;-69
2022/04/24 02:52:52;;;;;;;9.75;8.65;;;8.80;90.50;;;;;;5017017;28;89510;-70
2022/04/24 02:55:21;;;;;;;9.48;8.45;;;8.80;90.50;;;;;;5015698;28;93588;-69
2022/04/24 02:57:48;;;;;;;9.30;8.40;;;8.80;90.40;;;;;;5016252;28;88038;-69
2022/04/24 03:00:21;;;;;;;8.50;7.70;;;8.80;90.40;;;;;;5015904;28;91019;-69
2022/04/24 03:02:49;;;;;;;8.88;7.75;;;8.70;90.50;;;;;;5049657;27;91084;-69
2022/04/24 03:05:18;;;;;;;8.35;7.50;;;8.70;90.60;;;;;;5015275;28;94229;-69
2022/04/24 03:07:46;;;;;;;9.63;8.15;;;8.70;90.50;;;;;;5015980;28;88155;-69
2022/04/24 03:10:14;;;;;;;8.65;7.68;;;8.70;90.60;;;;;;5016338;28;88438;-69
2022/04/24 03:12:42;;;;;;;8.43;7.50;;;8.60;90.60;;;;;;5017250;28;88875;-69
2022/04/24 03:15:10;;;;;;;9.57;8.32;;;8.60;90.80;;;;;;5017127;28;88746;-69
2022/04/24 03:17:38;;;;;;;9.38;8.48;;;8.60;90.80;;;;;;4998401;28;90266;-69
2022/04/24 03:20:07;;;;;;;9.80;8.48;;;8.60;90.80;;;;;;5032408;28;88365;-69
2022/04/24 03:22:35;;;;;;;9.55;7.57;;;8.60;90.90;;;;;;5016764;28;89102;-69
2022/04/24 03:25:04;;;;;;;10.10;9.02;;;8.50;90.90;;;;;;5017031;28;88607;-69
2022/04/24 03:27:32;;;;;;;10.23;7.85;;;8.50;91.10;;;;;;5015914;28;88093;-69
2022/04/24 03:29:59;;;;;;;9.93;7.70;;;8.50;91.00;;;;;;5017043;28;88032;-69
2022/04/24 03:32:30;;;;;;;8.90;8.00;;;8.40;91.10;;;;;;5015225;28;91500;-69
2022/04/24 03:35:01;;;;;;;9.82;8.25;;;8.40;91.30;;;;;;5016309;28;88622;-69
2022/04/24 03:37:28;;;;;;;8.80;7.85;;;8.50;91.30;;;;;;5016561;28;88185;-69
2022/04/24 03:39:55;;;;;;;9.57;8.00;;;8.30;91.40;;;;;;5017451;28;93256;-69
2022/04/24 03:42:25;;;;;;;9.25;7.60;;;8.30;91.50;;;;;;5018498;28;89338;-69
2022/04/24 03:44:58;;;;;;;9.57;8.35;;;8.30;91.60;;;;;;5018889;28;92040;-69
2022/04/24 03:47:26;;;;;;;8.48;7.47;;;8.40;91.50;;;;;;5018500;28;88093;-69
2022/04/24 03:49:53;;;;;;;9.75;8.00;;;8.30;91.60;;;;;;5020044;28;88231;-70
2022/04/24 03:52:20;;;;;;;12.25;8.15;;;8.30;91.60;;;;;;5018434;28;90171;-69
2022/04/24 03:54:47;;;;;;;8.32;7.50;;;8.30;91.70;;;;;;5020162;28;88703;-69
2022/04/24 03:57:14;;;;;;;8.52;7.57;;;8.30;91.70;;;;;;5019007;28;87996;-69
2022/04/24 03:59:41;;;;;;;8.88;7.97;;;8.30;91.80;;;;;;5018874;28;89990;-69
2022/04/24 04:02:08;;;;;;;12.90;8.15;;;8.30;91.80;;;;;;5019995;28;88749;-69
2022/04/24 04:04:35;;;;;;;9.63;8.60;;;8.20;91.90;;;;;;5019676;28;88803;-69
2022/04/24 04:07:03;;;;;;;9.82;7.50;;;8.20;91.90;;;;;;5019152;28;101503;-69
2022/04/24 04:09:30;;;;;;;9.00;7.60;;;8.20;92.00;;;;;;5019582;28;88146;-69
2022/04/24 04:11:58;;;;;;;10.23;9.13;;;8.20;92.10;;;;;;5018337;28;94606;-69
2022/04/24 04:14:25;;;;;;;12.43;7.97;;;8.30;92.20;;;;;;5018148;28;88080;-69
2022/04/24 04:16:52;;;;;;;10.75;8.23;;;8.20;92.10;;;;;;5017947;28;88333;-70
2022/04/24 04:19:19;;;;;;;10.40;8.38;;;8.30;92.10;;;;;;5018620;28;88422;-70
2022/04/24 04:21:46;;;;;;;10.93;8.00;;;8.30;92.10;;;;;;5018246;28;91261;-70
2022/04/24 04:24:13;;;;;;;9.15;7.60;;;8.30;92.00;;;;;;5018831;28;87525;-69
2022/04/24 04:26:40;;;;;;;8.70;7.85;;;8.30;91.90;;;;;;5019374;28;88460;-69
2022/04/24 04:29:07;;;;;;;9.57;8.35;;;8.30;92.00;;;;;;5019753;28;88428;-70
2022/04/24 04:31:34;;;;;;;8.48;7.63;;;8.40;92.00;;;;;;5017756;28;89514;-69
2022/04/24 04:34:01;;;;;;;11.05;7.38;;;8.40;91.90;;;;;;5019583;28;88928;-69
2022/04/24 04:36:29;;;;;;;9.68;8.00;;;8.40;91.90;;;;;;5017966;28;88056;-70
2022/04/24 04:38:56;;;;;;;9.25;7.00;;;8.40;91.90;;;;;;5001301;28;91344;-69
2022/04/24 04:41:23;;;;;;;10.35;7.80;;;8.40;91.90;;;;;;5001062;28;91325;-69
2022/04/24 04:43:50;;;;;;;9.82;8.35;;;8.40;91.90;;;;;;5019478;28;88749;-69
2022/04/24 04:46:17;;;;;;;9.85;7.78;;;8.40;91.90;;;;;;5019232;28;88015;-69
2022/04/24 04:48:45;;;;;;;8.75;7.30;;;8.50;91.90;;;;;;5001455;28;89502;-69
2022/04/24 04:51:12;;;;;;;8.95;7.00;;;8.60;91.70;;;;;;5017690;28;91171;-70
2022/04/24 04:53:39;;;;;;;7.65;6.90;;;8.80;91.60;;;;;;5017592;28;91356;-69
2022/04/24 04:56:06;;;;;;;11.30;7.63;;;8.90;91.50;;;;;;5017034;28;99818;-69
2022/04/24 04:58:33;;;;;;;9.05;6.80;;;9.00;91.20;;;;;;5019006;28;88382;-69
2022/04/24 05:01:00;;;;;;;9.07;7.88;;;9.00;91.00;;;;;;5001047;28;91624;-70
2022/04/24 05:03:27;;;;;;;8.90;7.25;;;9.10;91.00;;;;;;5018885;28;88770;-70
2022/04/24 05:05:54;;;;;;;8.30;7.28;;;9.10;91.00;;;;;;5018916;28;88188;-70
2022/04/24 05:08:21;;;;;;;10.52;7.30;;;9.10;91.10;;;;;;5017535;28;88317;-69
2022/04/24 05:10:48;;;;;;;8.05;7.00;;;9.00;91.30;;;;;;5018859;28;88520;-69
2022/04/24 05:13:15;;;;;;;8.73;7.75;;;9.00;91.20;;;;;;5019199;28;87478;-70
2022/04/24 05:15:42;;;;;;;10.43;9.43;;;9.00;91.30;;;;;;5018488;28;87891;-70
2022/04/24 05:18:09;;;;;;;11.32;8.48;;;9.10;91.10;;;;;;5017407;28;93977;-70
2022/04/24 05:20:36;;;;;;;11.30;8.30;;;9.10;91.10;;;;;;5016763;28;95333;-70
2022/04/24 05:23:07;;;;;;;12.65;8.18;;;9.10;91.30;;;;;;5016946;28;89893;-70
2022/04/24 05:25:34;;;;;;;11.05;8.50;;;9.20;91.30;;;;;;5017293;28;89201;-70
2022/04/24 05:28:05;;;;;;;11.05;8.02;;;9.20;91.30;;;;;;5018537;28;88341;-70
2022/04/24 05:30:33;;;;;;;13.05;8.32;;;9.20;91.30;;;;;;5017450;28;88727;-69
2022/04/24 05:33:00;;;;;;;10.98;8.68;;;9.30;91.30;;;;;;5018599;28;88572;-69
2022/04/24 05:35:27;;;;;;;9.25;8.30;;;9.40;91.30;;;;;;5017438;28;88031;-69
2022/04/24 05:37:54;;;;;;;11.05;8.60;;;9.50;91.20;;;;;;5017486;28;88423;-70
2022/04/24 05:40:21;;;;;;;10.63;8.43;;;9.50;91.10;;;;;;5017508;27;91324;-70
2022/04/24 05:42:53;;;;;;;10.68;8.43;;;9.60;91.00;;;;;;5016652;28;101626;-70
2022/04/24 05:45:24;;;;;;;11.15;8.43;;;9.70;90.80;;;;;;5018188;28;88752;-70
2022/04/24 05:47:56;;;;;;;13.48;8.32;;;9.80;90.70;;;;;;5016608;28;91295;-70
2022/04/24 05:50:24;;;;;;;11.40;9.13;;;9.80;90.50;;;;;;5016875;28;91784;-70
2022/04/24 05:52:56;;;;;;;10.75;8.55;;;9.90;90.40;;;;;;5016734;28;90208;-70
2022/04/24 05:55:24;;;;;;;16.40;8.95;;;10.00;90.40;;;;;;5016984;28;89338;-70
2022/04/24 05:57:52;;;;;;;10.07;8.80;;;10.00;90.30;;;;;;5016599;28;91110;-70
2022/04/24 06:00:20;;;;;;;11.00;8.05;;;10.10;90.50;;;;;;5018399;28;88377;-70
2022/04/24 06:02:51;;;;;;;11.15;8.18;;;10.10;90.10;;;;;;5016338;28;91506;-70
2022/04/24 06:05:18;;;;;;;10.00;8.20;;;10.20;90.10;;;;;;5016798;28;88014;-70
2022/04/24 06:07:45;;;;;;;11.10;7.80;;;10.30;90.10;;;;;;5017839;28;88155;-70
2022/04/24 06:10:12;;;;;;;13.15;8.95;;;10.30;89.90;;;;;;5016432;28;92215;-69
2022/04/24 06:12:47;;;;;;;10.45;7.07;;;10.40;89.30;;;;;;5050058;27;89279;-69
2022/04/24 06:15:15;;;;;;;11.10;8.07;;;10.40;88.50;;;;;;5016527;28;89491;-70
2022/04/24 06:17:43;;;;;;;9.70;7.55;;;10.50;89.40;;;;;;5017209;28;88241;-70
2022/04/24 06:20:11;;;;;;;11.30;7.78;;;10.60;88.20;;;;;;5017833;28;88788;-70
2022/04/24 06:22:45;;;;;;;10.63;7.82;;;10.70;88.10;;;;;;5017435;28;89681;-70
2022/04/24 06:25:18;;;;;;;9.13;7.78;;;10.90;87.80;;;;;;5016905;28;89021;-70
2022/04/24 06:27:46;;;;;;;;;;;11.00;87.70;;;;;;5016956;28;90866;-70
2022/04/24 06:30:14;;;;;;;7.47;6.28;;;11.00;86.20;;;;;;5017956;28;91325;-70
2022/04/24 06:32:42;;;;;;;8.75;7.85;;;11.10;86.20;;;;;;5016113;28;90907;-70
2022/04/24 06:35:13;;;;;;;7.70;6.90;;;11.30;85.50;;;;;;5017378;28;88818;-70
2022/04/24 06:37:41;;;;;;;9.18;7.13;;;11.50;84.50;;;;;;5017730;28;88007;-70
2022/04/24 06:40:10;;;;;;;8.23;6.68;;;11.60;83.30;;;;;;5016106;28;91836;-70
2022/04/24 06:42:58;;;;;;;7.55;6.68;;;11.70;82.30;;;;;;5016418;28;88709;-70
2022/04/24 06:45:26;;;;;;;8.18;6.72;;;12.10;82.70;;;;;;5016260;28;89232;-70
2022/04/24 06:47:53;;;;;;;6.15;5.53;;;12.10;81.20;;;;;;5016227;28;88393;-70
2022/04/24 06:50:22;;;;;;;7.60;6.05;;;12.20;81.10;;;;;;5017520;28;88830;-70
2022/04/24 06:52:59;;;;;;;7.45;5.93;;;12.30;80.50;;;;;;5017501;28;89137;-70
2022/04/24 06:55:28;;;;;;;7.57;5.30;;;12.40;80.10;;;;;;5017612;28;87961;-70
2022/04/24 06:57:55;;;;;;;5.65;5.03;;;12.60;79.60;;;;;;5016577;28;105214;-70
2022/04/24 07:00:24;;;;;;;5.82;5.07;;;12.50;78.60;;;;;;5015762;28;88767;-70
2022/04/24 07:02:51;;;;;;;8.45;5.80;;;12.60;78.70;;;;;;5017263;28;89355;-70
2022/04/24 07:05:23;;;;;;;8.68;5.18;;;12.60;78.90;;;;;;5017336;28;88465;-70
2022/04/24 07:07:50;;;;;;;6.18;4.57;;;12.70;78.30;;;;;;5015888;28;91065;-70
2022/04/24 07:10:18;;;;;;;7.38;4.40;;;12.80;77.60;;;;;;5015747;28;91354;-70
2022/04/24 07:12:53;;;;;;;6.70;4.95;;;12.90;76.90;;;;;;5017108;28;88842;-70
2022/04/24 07:15:22;;;;;;;5.80;4.40;;;13.10;77.10;;;;;;5019719;28;88040;-70
2022/04/24 07:17:51;;;;;;;6.32;4.30;;;13.20;77.00;;;;;;5019284;28;91448;-70
2022/04/24 07:20:19;;;;;;;4.20;3.80;;;13.50;75.80;;;;;;5019304;28;88865;-70
2022/04/24 07:22:52;;;;;;;5.25;4.50;;;13.60;76.10;;;;;;5019188;28;88606;-70
2022/04/24 07:25:23;;;;;;;4.88;4.38;;;13.80;75.80;;;;;;5019340;28;88746;-70
2022/04/24 07:27:50;;;;;;;5.55;4.70;;;14.10;74.90;;;;;;5020453;28;88290;-70
2022/04/24 07:30:19;;;;;;;5.30;4.30;;;14.30;74.30;;;;;;5036090;27;88230;-70
2022/04/24 07:32:48;;;;;;;4.85;4.45;;;14.50;73.80;;;;;;5018745;28;91471;-70
2022/04/24 07:35:18;;;;;;;6.95;4.07;;;14.70;72.90;;;;;;5019292;28;89363;-70
2022/04/24 07:37:45;;;;;;;3.88;3.53;;;15.10;71.90;;;;;;5020310;28;88275;-70
2022/04/24 07:40:14;;;;;;;5.18;3.63;;;15.20;70.80;;;;;;5018633;28;99448;-70
2022/04/24 07:42:52;;;;;;;4.68;3.55;;;15.40;69.00;;;;;;5019234;28;87555;-70
2022/04/24 07:45:30;;;;;;;4.53;4.13;;;15.60;67.00;;;;;;5018868;28;88143;-70
2022/04/24 07:47:59;;;;;;;4.10;3.70;;;15.60;66.40;;;;;;5020321;28;87982;-70
2022/04/24 07:50:33;;;;;;;4.18;3.78;;;15.70;65.80;;;;;;5019231;28;104427;-70
2022/04/24 07:53:02;;;;;;;4.75;3.85;;;15.90;66.60;;;;;;5018524;28;92085;-70
2022/04/24 07:55:29;;;;;;;6.05;4.00;;;16.30;65.50;;;;;;5019975;28;88001;-70
2022/04/24 07:57:57;;;;;;;4.55;4.05;;;16.70;62.70;;;;;;5018672;28;88556;-71
2022/04/24 08:00:27;;;;;;;5.35;4.95;;;17.50;60.90;;;;;;5018668;28;91482;-71
2022/04/24 08:03:15;;;;;;;7.55;5.88;;;17.90;58.70;;;;;;5018385;28;88674;-71
2022/04/24 08:05:43;;;;;;;4.30;3.90;;;18.60;56.30;;;;;;5018442;28;88136;-71
2022/04/24 08:08:15;;;;;;;5.13;4.60;;;18.70;53.10;;;;;;5019936;28;88556;-71
2022/04/24 08:10:47;;;;;;;4.70;4.40;;;19.10;53.10;;;;;;5020125;28;88622;-71
2022/04/24 08:13:21;;;;;;;4.78;4.25;;;19.60;52.10;;;;;;5019902;28;89075;-71
2022/04/24 08:15:49;;;;;;;5.07;4.63;;;20.20;51.40;;;;;;5018901;28;88723;-71
2022/04/24 08:18:17;;;;;;;4.05;3.67;;;20.70;48.60;;;;;;5002271;28;89105;-71
2022/04/24 08:20:45;;;;;;;5.22;4.82;;;20.90;46.40;;;;;;5018280;28;89855;-71
2022/04/24 08:23:15;;;;;;;4.55;4.25;;;21.10;45.50;;;;;;5019300;28;88060;-71
2022/04/24 08:25:43;;;;;;;4.88;4.38;;;21.40;46.00;;;;;;5018972;28;87892;-71
2022/04/24 08:28:12;;;;;;;5.57;5.25;;;21.50;45.50;;;;;;5017953;28;88532;-71
2022/04/24 08:30:41;;;;;;;4.50;4.20;;;21.60;44.70;;;;;;5018052;28;91339;-71
2022/04/24 08:33:09;;;;;;;5.68;5.18;;;21.60;44.10;;;;;;5019447;28;88700;-71
2022/04/24 08:35:37;;;;;;;4.65;3.97;;;21.80;43.80;;;;;;5019561;28;88107;-71
2022/04/24 08:38:07;;;;;;;4.40;4.10;;;21.80;43.80;;;;;;5018252;28;88384;-71
2022/04/24 08:40:34;;;;;;;4.55;4.25;;;21.60;44.20;;;;;;5019002;28;89673;-71
2022/04/24 08:43:01;;;;;;;5.45;5.05;;;21.70;44.70;;;;;;5000955;28;89201;-71
2022/04/24 08:45:30;;;;;;;4.70;4.40;;;21.40;44.80;;;;;;5019057;28;100404;-71
2022/04/24 08:47:58;;;;;;;4.03;3.63;;;21.00;43.90;;;;;;5018917;28;88105;-71
2022/04/24 08:50:30;;;;;;;4.60;3.88;;;20.90;44.60;;;;;;5001346;28;88828;-71
2022/04/24 08:52:58;;;;;;;4.65;4.20;;;20.80;45.30;;;;;;5017682;28;88485;-71
2022/04/24 08:55:27;;;;;;;4.47;3.95;;;20.20;47.20;;;;;;5019116;28;87910;-71
2022/04/24 08:57:54;;;;;;;5.15;4.65;;;19.90;48.10;;;;;;5019613;28;88418;-71
2022/04/24 09:00:21;;;;;;;4.72;3.88;;;19.30;49.00;;;;;;5019119;28;89638;-71
2022/04/24 09:05:53;;;;;;;5.05;4.30;;;18.30;51.80;;;;;;5016113;28;88780;-70
2022/04/24 09:08:24;;;;;;;4.43;3.35;;;17.70;54.00;;;;;;5018657;28;88290;-70
2022/04/24 09:11:11;;;;;;;4.57;4.18;;;17.50;55.50;;;;;;5017315;28;89848;-70
2022/04/24 09:14:38;;;;;;;4.60;3.90;;;17.00;56.20;;;;;;5001256;28;88588;-70
2022/04/24 09:16:38;;;;;;;4.70;3.75;;;16.70;57.30;;;;;;5004005;28;92225;-70
2022/04/24 09:19:24;;;;;;;4.97;3.05;;;16.50;58.90;;;;;;5018757;28;88253;-70
2022/04/24 09:21:53;;;;;;;4.50;3.45;;;16.40;59.40;;;;;;5018997;28;89022;-70
2022/04/24 09:24:20;;;;;;;4.05;2.95;;;16.20;59.90;;;;;;5018796;28;88730;-70
2022/04/24 09:26:55;;;;;;;4.47;3.60;;;16.10;60.20;;;;;;5018628;28;88429;-70
2022/04/24 09:29:23;;;;;;;3.58;3.28;;;15.90;59.80;;;;;;5017001;28;91137;-70
2022/04/24 09:31:51;;;;;;;5.50;3.80;;;15.90;60.30;;;;;;5018158;28;89600;-70
2022/04/24 09:34:21;;;;;;;4.38;3.60;;;15.80;60.60;;;;;;5018164;28;89266;-70
2022/04/24 09:37:00;;;;;;;5.53;3.50;;;15.80;60.10;;;;;;5017444;28;88051;-70
2022/04/24 09:39:28;;;;;;;4.55;3.55;;;15.80;60.90;;;;;;5017191;28;90860;-70
2022/04/24 09:42:21;;;;;;;4.30;3.88;;;15.70;61.50;;;;;;5000301;28;97191;-70
2022/04/24 09:44:53;;;;;;;5.45;3.60;;;15.80;62.00;;;;;;5016188;28;88672;-70
2022/04/24 09:47:42;;;;;;;7.05;4.32;;;15.70;63.10;;;;;;5016823;28;88137;-70
2022/04/24 09:50:12;;;;;;;3.58;3.03;;;15.70;61.60;;;;;;5017113;28;88564;-70
2022/04/24 09:52:47;;;;;;;4.57;4.10;;;15.90;61.90;;;;;;5016820;28;91333;-70
2022/04/24 09:55:14;;;;;;;5.22;3.42;;;15.90;60.50;;;;;;5018270;28;88739;-70
2022/04/24 09:57:42;;;;;;;3.47;3.17;;;15.90;60.70;;;;;;4999211;28;104157;-70
2022/04/24 10:00:10;;;;;;;4.05;3.20;;;15.90;61.00;;;;;;4999789;28;90998;-70
2022/04/24 10:02:37;;;;;;;4.05;3.53;;;15.90;60.30;;;;;;5018135;28;88816;-70
2022/04/24 10:05:06;;;;;;;4.25;2.97;;;15.90;61.30;;;;;;5000286;28;91264;-70
2022/04/24 10:07:34;;;;;;;3.72;3.35;;;16.00;60.80;;;;;;5016605;28;89525;-70
2022/04/24 10:10:01;;;;;;;4.25;2.85;;;16.10;60.80;;;;;;5018164;28;88249;-70
2022/04/24 10:12:30;;;;;;;3.72;3.38;;;16.20;61.30;;;;;;5017738;28;88871;-70
2022/04/24 10:15:01;;;;;;;2.28;2.17;;;16.10;58.10;;;;;;5016984;28;88598;-70
2022/04/24 10:17:56;;;;;;;4.47;2.97;;;16.10;59.10;;;;;;5016243;28;88291;-70
2022/04/24 10:20:41;;;;;;;5.32;2.70;;;16.30;60.60;;;;;;5016257;28;89463;-70
2022/04/24 10:23:09;;;;;;;3.20;2.90;;;16.20;59.30;;;;;;5017279;28;89473;-70
2022/04/24 10:25:38;;;;;;;5.00;3.65;;;16.30;59.20;;;;;;5018003;28;89367;-70
2022/04/24 10:28:11;;;;;;;3.65;3.30;;;16.40;59.70;;;;;;5016376;28;89667;-70
2022/04/24 10:30:39;;;;;;;3.10;2.88;;;16.50;59.70;;;;;;5017859;28;88276;-70
2022/04/24 10:33:17;;;;;;;3.80;3.40;;;16.50;58.10;;;;;;5017081;28;107840;-70
2022/04/24 10:35:50;;;;;;;3.50;2.97;;;16.60;58.50;;;;;;4999736;28;91114;-70
2022/04/24 10:38:18;;;;;;;3.80;3.05;;;16.50;57.30;;;;;;5017279;28;88170;-70
2022/04/24 10:41:16;;;;;;;4.25;3.10;;;16.50;57.30;;;;;;5017947;28;88372;-70
2022/04/24 10:43:51;;;;;;;3.90;3.33;;;16.70;57.30;;;;;;5013003;28;88884;-70
2022/04/24 10:46:24;;;;;;;4.13;3.72;;;16.80;56.90;;;;;;5017449;28;88434;-70
2022/04/24 10:48:52;;;;;;;5.25;2.95;;;17.00;57.80;;;;;;5019377;28;88807;-70
2022/04/24 10:51:30;;;;;;;3.00;2.70;;;16.90;59.40;;;;;;5020881;28;88411;-70
2022/04/24 10:54:05;;;;;;;3.50;3.20;;;17.20;56.10;;;;;;5020059;28;88762;-70
2022/04/24 10:56:32;;;;;;;3.55;3.25;;;17.30;58.20;;;;;;5019460;28;91531;-70
2022/04/24 10:59:10;;;;;;;2.75;2.55;;;17.40;57.80;;;;;;5020964;28;87986;-70
2022/04/24 11:01:42;;;;;;;3.15;2.85;;;17.50;56.60;;;;;;5021077;28;89445;-70
2022/04/24 11:04:11;;;;;;;4.05;3.70;;;17.60;55.20;;;;;;5021155;28;88736;-70
2022/04/24 11:06:38;;;;;;;3.95;2.70;;;17.70;55.70;;;;;;5019335;28;91081;-70
2022/04/24 11:09:18;;;;;;;4.50;4.07;;;17.60;55.40;;;;;;5020757;28;87973;-70
2022/04/24 11:11:49;;;;;;;3.17;2.88;;;17.70;54.10;;;;;;5019560;28;88241;-70
2022/04/24 11:14:24;;;;;;;5.50;2.80;;;17.70;54.10;;;;;;5020208;28;89308;-70
2022/04/24 11:16:53;;;;;;;4.20;2.80;;;17.70;52.90;;;;;;5019286;28;89281;-70
2022/04/24 11:19:27;;;;;;;3.63;3.42;;;17.40;52.60;;;;;;5018798;28;88032;-70
2022/04/24 11:21:59;;;;;;;3.10;2.53;;;17.30;53.20;;;;;;5020841;28;88442;-70
2022/04/24 11:24:31;;;;;;;3.97;2.95;;;17.50;53.20;;;;;;5018907;28;91458;-70
2022/04/24 11:27:07;;;;;;;2.95;2.47;;;17.80;52.20;;;;;;5020682;28;88554;-70
2022/04/24 11:29:35;;;;;;;3.88;2.90;;;17.90;51.60;;;;;;5020468;28;87965;-70
2022/04/24 11:32:07;;;;;;;3.35;2.70;;;17.80;52.40;;;;;;5020962;28;88312;-70
2022/04/24 11:34:36;;;;;;;2.60;2.40;;;17.80;52.50;;;;;;5020238;28;88760;-70
2022/04/24 11:37:04;;;;;;;3.65;3.35;;;17.80;51.10;;;;;;5019953;28;88589;-70
2022/04/24 11:39:57;;;;;;;4.78;2.50;;;17.90;51.60;;;;;;5031130;28;88960;-70
2022/04/24 11:42:42;;;;;;;3.95;2.40;;;18.10;52.10;;;;;;5019946;28;88103;-70
2022/04/24 11:50:52;;;;;;;3.22;2.55;;;17.90;53.50;;;;;;5020411;28;87996;-70
2022/04/24 11:53:40;;;;;;;3.05;2.40;;;17.70;54.80;;;;;;5018908;28;88100;-70
2022/04/24 11:56:07;;;;;;;4.25;3.85;;;17.50;53.80;;;;;;5016408;28;94343;-70
2022/04/24 11:58:36;;;;;;;3.10;2.80;;;17.40;54.50;;;;;;5017879;28;93011;-70
2022/04/24 12:01:08;;;;;;;5.03;2.88;;;17.30;54.40;;;;;;5017024;28;92601;-70
2022/04/24 12:03:36;;;;;;;3.83;2.80;;;17.30;55.50;;;;;;5017796;28;92499;-70
2022/04/24 12:06:07;;;;;;;3.67;3.17;;;17.20;55.40;;;;;;5048584;27;94850;-70
2022/04/24 12:08:42;;;;;;;5.28;3.97;;;17.30;56.20;;;;;;4998999;28;97907;-70
2022/04/24 12:11:23;;;;;;;3.95;3.35;;;17.40;55.80;;;;;;5016207;28;92469;-70
2022/04/24 12:14:06;;;;;;;3.47;2.85;;;17.50;54.50;;;;;;5018124;28;92331;-70
2022/04/24 12:16:33;;;;;;;4.68;2.95;;;17.70;53.40;;;;;;5031991;28;94877;-70
2022/04/24 12:19:04;;;;;;;4.55;3.97;;;17.50;53.30;;;;;;5017638;28;92731;-70
2022/04/24 12:21:45;;;;;;;4.20;2.70;;;17.60;54.10;;;;;;5015731;28;98400;-70
2022/04/24 12:24:12;;;;;;;4.47;2.58;;;17.50;52.70;;;;;;5017969;28;91982;-70
2022/04/24 12:26:50;;;;;;;4.10;3.75;;;17.50;52.30;;;;;;5015753;28;95664;-71
2022/04/24 12:29:17;;;;;;;4.93;4.53;;;17.60;54.40;;;;;;5049574;27;92877;-70
2022/04/24 12:31:48;;;;;;;4.20;2.72;;;17.60;55.20;;;;;;5031288;28;94802;-70
2022/04/24 12:34:15;;;;;;;4.57;2.92;;;17.40;54.80;;;;;;5015879;28;92439;-70
2022/04/24 12:36:52;;;;;;;4.20;3.60;;;17.20;56.00;;;;;;5016774;28;93617;-70
2022/04/24 12:39:24;;;;;;;5.03;4.55;;;17.20;56.70;;;;;;5015319;28;95587;-70
2022/04/24 12:41:51;;;;;;;4.78;4.47;;;17.30;58.70;;;;;;5017343;28;92402;-70
2022/04/24 12:44:18;;;;;;;3.00;2.60;;;17.50;55.80;;;;;;5017277;28;92433;-70
2022/04/24 12:46:52;;;;;;;3.28;2.97;;;17.50;55.40;;;;;;5015821;28;93117;-70
2022/04/24 12:49:30;;;;;;;4.05;3.75;;;17.30;54.80;;;;;;5017303;28;92986;-70
2022/04/24 12:51:58;;;;;;;3.47;3.05;;;17.40;56.00;;;;;;5015547;28;92436;-70
2022/04/24 12:54:25;;;;;;;4.32;3.67;;;17.40;56.60;;;;;;5017111;28;92522;-70
2022/04/24 12:56:53;;;;;;;3.35;3.00;;;17.60;54.30;;;;;;5015566;28;95307;-71
2022/04/24 12:59:20;;;;;;;6.13;4.53;;;17.70;55.20;;;;;;5016781;28;95399;-70
2022/04/24 13:01:47;;;;;;;4.88;3.97;;;17.30;58.60;;;;;;5049099;27;92404;-70
2022/04/24 13:04:19;;;;;;;3.90;3.60;;;17.20;59.20;;;;;;4999687;28;92463;-70
2022/04/24 13:06:48;;;;;;;4.20;3.80;;;17.30;60.00;;;;;;5015950;28;107743;-70
2022/04/24 13:09:15;;;;;;;5.03;4.00;;;17.50;59.80;;;;;;4998806;28;95506;-70